sensor_id;sensor_type;location;lat;lon;timestamp;P1;durP1;ratioP1;P2;durP2;ratioP2
15706;SDS011;7953;54.302;10.128;2023-01-08T00:01:04;3.03;;;2.23;;
15706;SDS011;7953;54.302;10.128;2023-01-08T00:03:32;2.60;;;2.23;;
15706;SDS011;7953;54.302;10.128;2023-01-08T00:05:59;2.77;;;2.00;;
15706;SDS011;7953;54.302;10.128;2023-01-08T00:08:27;2.40;;;2.20;;
15706;SDS011;7953;54.302;10.128;2023-01-08T00:10:54;3.53;;;1.97;;
15706;SDS011;7953;54.302;10.128;2023-01-08T00:13:22;2.30;;;2.10;;
15706;SDS011;7953;54.302;10.128;2023-01-08T00:15:50;1.80;;;1.70;;
15706;SDS011;7953;54.302;10.128;2023-01-08T00:18:17;2.40;;;2.20;;
15706;SDS011;7953;54.302;10.128;2023-01-08T00:20:45;2.50;;;2.30;;
15706;SDS011;7953;54.302;10.128;2023-01-08T00:23:12;2.27;;;2.03;;
15706;SDS011;7953;54.302;10.128;2023-01-08T00:25:40;3.60;;;2.10;;
15706;SDS011;7953;54.302;10.128;2023-01-08T00:28:06;2.40;;;2.20;;
15706;SDS011;7953;54.302;10.128;2023-01-08T00:30:35;2.47;;;2.27;;
15706;SDS011;7953;54.302;10.128;2023-01-08T00:33:02;2.70;;;2.40;;
15706;SDS011;7953;54.302;10.128;2023-01-08T00:35:29;2.17;;;1.67;;
15706;SDS011;7953;54.302;10.128;2023-01-08T00:37:56;2.90;;;2.43;;
15706;SDS011;7953;54.302;10.128;2023-01-08T00:40:23;2.90;;;1.87;;
15706;SDS011;7953;54.302;10.128;2023-01-08T00:42:50;2.47;;;2.27;;
15706;SDS011;7953;54.302;10.128;2023-01-08T00:45:16;2.23;;;2.03;;
15706;SDS011;7953;54.302;10.128;2023-01-08T00:47:45;5.70;;;2.27;;
15706;SDS011;7953;54.302;10.128;2023-01-08T00:50:11;2.73;;;1.90;;
15706;SDS011;7953;54.302;10.128;2023-01-08T00:52:39;2.10;;;1.90;;
15706;SDS011;7953;54.302;10.128;2023-01-08T00:55:06;3.37;;;2.20;;
15706;SDS011;7953;54.302;10.128;2023-01-08T00:57:33;2.53;;;2.20;;
15706;SDS011;7953;54.302;10.128;2023-01-08T01:00:00;2.97;;;2.07;;
15706;SDS011;7953;54.302;10.128;2023-01-08T01:02:28;2.03;;;1.93;;
15706;SDS011;7953;54.302;10.128;2023-01-08T01:04:56;3.93;;;2.20;;
15706;SDS011;7953;54.302;10.128;2023-01-08T01:07:23;2.47;;;2.27;;
15706;SDS011;7953;54.302;10.128;2023-01-08T01:09:50;2.37;;;2.17;;
15706;SDS011;7953;54.302;10.128;2023-01-08T01:12:16;2.70;;;2.30;;
15706;SDS011;7953;54.302;10.128;2023-01-08T01:14:43;2.83;;;2.43;;
15706;SDS011;7953;54.302;10.128;2023-01-08T01:17:10;3.60;;;2.20;;
15706;SDS011;7953;54.302;10.128;2023-01-08T01:19:38;2.47;;;2.20;;
15706;SDS011;7953;54.302;10.128;2023-01-08T01:22:06;2.30;;;2.10;;
15706;SDS011;7953;54.302;10.128;2023-01-08T01:24:33;1.83;;;1.70;;
15706;SDS011;7953;54.302;10.128;2023-01-08T01:27:00;2.63;;;2.40;;
15706;SDS011;7953;54.302;10.128;2023-01-08T01:29:27;2.90;;;2.60;;
15706;SDS011;7953;54.302;10.128;2023-01-08T01:31:54;2.77;;;2.50;;
15706;SDS011;7953;54.302;10.128;2023-01-08T01:34:21;3.23;;;2.50;;
15706;SDS011;7953;54.302;10.128;2023-01-08T01:36:48;2.97;;;2.40;;
15706;SDS011;7953;54.302;10.128;2023-01-08T01:39:16;2.93;;;2.50;;
15706;SDS011;7953;54.302;10.128;2023-01-08T01:41:44;2.97;;;2.20;;
15706;SDS011;7953;54.302;10.128;2023-01-08T01:44:34;2.70;;;2.50;;
15706;SDS011;7953;54.302;10.128;2023-01-08T01:47:05;2.57;;;2.30;;
15706;SDS011;7953;54.302;10.128;2023-01-08T01:49:38;4.20;;;2.70;;
15706;SDS011;7953;54.302;10.128;2023-01-08T01:52:12;2.50;;;2.30;;
15706;SDS011;7953;54.302;10.128;2023-01-08T01:54:41;3.80;;;2.67;;
15706;SDS011;7953;54.302;10.128;2023-01-08T01:57:08;3.23;;;2.93;;
15706;SDS011;7953;54.302;10.128;2023-01-08T01:59:35;3.57;;;2.40;;
15706;SDS011;7953;54.302;10.128;2023-01-08T02:02:02;2.67;;;2.47;;
15706;SDS011;7953;54.302;10.128;2023-01-08T02:04:29;2.87;;;2.30;;
15706;SDS011;7953;54.302;10.128;2023-01-08T02:06:57;2.87;;;2.53;;
15706;SDS011;7953;54.302;10.128;2023-01-08T02:09:31;2.90;;;2.13;;
15706;SDS011;7953;54.302;10.128;2023-01-08T02:12:09;3.13;;;2.40;;
15706;SDS011;7953;54.302;10.128;2023-01-08T02:17:33;5.60;;;3.07;;
15706;SDS011;7953;54.302;10.128;2023-01-08T02:20:06;3.07;;;2.70;;
15706;SDS011;7953;54.302;10.128;2023-01-08T02:22:40;3.37;;;2.53;;
15706;SDS011;7953;54.302;10.128;2023-01-08T02:25:15;4.23;;;2.63;;
15706;SDS011;7953;54.302;10.128;2023-01-08T02:27:50;3.17;;;2.70;;
15706;SDS011;7953;54.302;10.128;2023-01-08T02:30:18;3.77;;;2.70;;
15706;SDS011;7953;54.302;10.128;2023-01-08T02:32:45;3.40;;;2.70;;
15706;SDS011;7953;54.302;10.128;2023-01-08T02:35:12;2.50;;;2.23;;
15706;SDS011;7953;54.302;10.128;2023-01-08T02:37:38;3.63;;;2.77;;
15706;SDS011;7953;54.302;10.128;2023-01-08T02:40:10;3.17;;;2.77;;
15706;SDS011;7953;54.302;10.128;2023-01-08T02:42:49;3.30;;;2.53;;
15706;SDS011;7953;54.302;10.128;2023-01-08T02:45:23;3.30;;;3.00;;
15706;SDS011;7953;54.302;10.128;2023-01-08T02:47:56;3.20;;;2.37;;
15706;SDS011;7953;54.302;10.128;2023-01-08T02:50:31;3.10;;;2.80;;
15706;SDS011;7953;54.302;10.128;2023-01-08T02:53:03;2.73;;;2.50;;
15706;SDS011;7953;54.302;10.128;2023-01-08T02:55:35;3.40;;;2.77;;
15706;SDS011;7953;54.302;10.128;2023-01-08T02:58:06;3.30;;;2.63;;
15706;SDS011;7953;54.302;10.128;2023-01-08T03:00:34;4.60;;;3.10;;
15706;SDS011;7953;54.302;10.128;2023-01-08T03:03:04;4.23;;;2.70;;
15706;SDS011;7953;54.302;10.128;2023-01-08T03:05:34;3.13;;;2.83;;
15706;SDS011;7953;54.302;10.128;2023-01-08T03:08:05;6.07;;;3.00;;
15706;SDS011;7953;54.302;10.128;2023-01-08T03:10:33;5.23;;;2.93;;
15706;SDS011;7953;54.302;10.128;2023-01-08T03:13:05;3.07;;;2.77;;
15706;SDS011;7953;54.302;10.128;2023-01-08T03:15:40;3.00;;;2.40;;
15706;SDS011;7953;54.302;10.128;2023-01-08T03:18:12;3.00;;;2.70;;
15706;SDS011;7953;54.302;10.128;2023-01-08T03:20:43;4.37;;;2.83;;
15706;SDS011;7953;54.302;10.128;2023-01-08T03:23:12;4.60;;;2.77;;
15706;SDS011;7953;54.302;10.128;2023-01-08T03:25:42;3.80;;;2.90;;
15706;SDS011;7953;54.302;10.128;2023-01-08T03:28:14;5.20;;;3.20;;
15706;SDS011;7953;54.302;10.128;2023-01-08T03:30:45;4.67;;;2.60;;
15706;SDS011;7953;54.302;10.128;2023-01-08T03:33:14;2.97;;;2.67;;
15706;SDS011;7953;54.302;10.128;2023-01-08T03:35:43;3.80;;;2.93;;
15706;SDS011;7953;54.302;10.128;2023-01-08T03:38:14;3.93;;;2.80;;
15706;SDS011;7953;54.302;10.128;2023-01-08T03:40:46;3.80;;;3.50;;
15706;SDS011;7953;54.302;10.128;2023-01-08T03:43:18;3.00;;;2.60;;
15706;SDS011;7953;54.302;10.128;2023-01-08T03:45:46;4.20;;;3.10;;
15706;SDS011;7953;54.302;10.128;2023-01-08T03:48:15;4.03;;;3.07;;
15706;SDS011;7953;54.302;10.128;2023-01-08T03:50:44;3.73;;;3.43;;
15706;SDS011;7953;54.302;10.128;2023-01-08T03:53:11;3.33;;;2.93;;
15706;SDS011;7953;54.302;10.128;2023-01-08T03:55:38;3.07;;;2.77;;
15706;SDS011;7953;54.302;10.128;2023-01-08T03:58:05;4.23;;;2.93;;
15706;SDS011;7953;54.302;10.128;2023-01-08T04:00:33;4.57;;;3.17;;
15706;SDS011;7953;54.302;10.128;2023-01-08T04:03:00;3.33;;;3.03;;
15706;SDS011;7953;54.302;10.128;2023-01-08T04:05:27;3.67;;;3.37;;
15706;SDS011;7953;54.302;10.128;2023-01-08T04:07:54;3.50;;;3.07;;
15706;SDS011;7953;54.302;10.128;2023-01-08T04:10:21;4.23;;;3.03;;
15706;SDS011;7953;54.302;10.128;2023-01-08T04:12:48;4.73;;;3.13;;
15706;SDS011;7953;54.302;10.128;2023-01-08T04:15:16;3.60;;;3.30;;
15706;SDS011;7953;54.302;10.128;2023-01-08T04:17:44;3.10;;;2.87;;
15706;SDS011;7953;54.302;10.128;2023-01-08T04:20:11;4.77;;;4.10;;
15706;SDS011;7953;54.302;10.128;2023-01-08T04:22:38;7.07;;;3.67;;
15706;SDS011;7953;54.302;10.128;2023-01-08T04:25:05;3.63;;;3.33;;
15706;SDS011;7953;54.302;10.128;2023-01-08T04:27:32;3.23;;;2.93;;
15706;SDS011;7953;54.302;10.128;2023-01-08T04:29:59;3.30;;;3.00;;
15706;SDS011;7953;54.302;10.128;2023-01-08T04:32:26;5.37;;;3.17;;
15706;SDS011;7953;54.302;10.128;2023-01-08T04:34:54;3.53;;;3.23;;
15706;SDS011;7953;54.302;10.128;2023-01-08T04:37:21;3.87;;;3.10;;
15706;SDS011;7953;54.302;10.128;2023-01-08T04:39:48;3.67;;;3.30;;
15706;SDS011;7953;54.302;10.128;2023-01-08T04:42:14;9.47;;;3.23;;
15706;SDS011;7953;54.302;10.128;2023-01-08T04:44:41;3.47;;;3.17;;
15706;SDS011;7953;54.302;10.128;2023-01-08T04:47:08;3.83;;;3.30;;
15706;SDS011;7953;54.302;10.128;2023-01-08T04:49:35;3.73;;;3.20;;
15706;SDS011;7953;54.302;10.128;2023-01-08T04:52:03;3.37;;;3.07;;
15706;SDS011;7953;54.302;10.128;2023-01-08T04:54:30;3.10;;;2.80;;
15706;SDS011;7953;54.302;10.128;2023-01-08T04:56:57;3.50;;;3.20;;
15706;SDS011;7953;54.302;10.128;2023-01-08T04:59:24;6.17;;;3.40;;
15706;SDS011;7953;54.302;10.128;2023-01-08T05:01:51;3.20;;;2.93;;
15706;SDS011;7953;54.302;10.128;2023-01-08T05:04:18;4.47;;;3.40;;
15706;SDS011;7953;54.302;10.128;2023-01-08T05:06:45;3.50;;;3.20;;
15706;SDS011;7953;54.302;10.128;2023-01-08T05:09:13;4.27;;;3.23;;
15706;SDS011;7953;54.302;10.128;2023-01-08T05:11:40;3.73;;;3.43;;
15706;SDS011;7953;54.302;10.128;2023-01-08T05:14:07;4.13;;;3.60;;
15706;SDS011;7953;54.302;10.128;2023-01-08T05:16:34;4.73;;;3.43;;
15706;SDS011;7953;54.302;10.128;2023-01-08T05:19:01;4.20;;;3.20;;
15706;SDS011;7953;54.302;10.128;2023-01-08T05:21:27;3.73;;;3.43;;
15706;SDS011;7953;54.302;10.128;2023-01-08T05:23:54;4.17;;;3.17;;
15706;SDS011;7953;54.302;10.128;2023-01-08T05:26:23;3.50;;;3.20;;
15706;SDS011;7953;54.302;10.128;2023-01-08T05:28:49;3.83;;;3.43;;
15706;SDS011;7953;54.302;10.128;2023-01-08T05:31:16;3.80;;;3.30;;
15706;SDS011;7953;54.302;10.128;2023-01-08T05:33:43;3.10;;;2.73;;
15706;SDS011;7953;54.302;10.128;2023-01-08T05:36:11;5.37;;;3.27;;
15706;SDS011;7953;54.302;10.128;2023-01-08T05:38:39;3.93;;;3.50;;
15706;SDS011;7953;54.302;10.128;2023-01-08T05:41:06;5.20;;;3.93;;
15706;SDS011;7953;54.302;10.128;2023-01-08T05:43:35;5.60;;;3.40;;
15706;SDS011;7953;54.302;10.128;2023-01-08T05:46:02;4.10;;;3.40;;
15706;SDS011;7953;54.302;10.128;2023-01-08T05:48:30;3.50;;;3.20;;
15706;SDS011;7953;54.302;10.128;2023-01-08T05:50:58;3.37;;;3.07;;
15706;SDS011;7953;54.302;10.128;2023-01-08T05:53:25;4.50;;;3.50;;
15706;SDS011;7953;54.302;10.128;2023-01-08T05:55:56;5.50;;;3.50;;
15706;SDS011;7953;54.302;10.128;2023-01-08T05:58:24;3.40;;;3.10;;
15706;SDS011;7953;54.302;10.128;2023-01-08T06:00:52;3.47;;;3.17;;
15706;SDS011;7953;54.302;10.128;2023-01-08T06:03:25;4.07;;;3.20;;
15706;SDS011;7953;54.302;10.128;2023-01-08T06:05:56;3.73;;;3.27;;
15706;SDS011;7953;54.302;10.128;2023-01-08T06:08:23;3.40;;;3.10;;
15706;SDS011;7953;54.302;10.128;2023-01-08T06:10:50;3.40;;;3.10;;
15706;SDS011;7953;54.302;10.128;2023-01-08T06:13:17;3.23;;;2.93;;
15706;SDS011;7953;54.302;10.128;2023-01-08T06:15:44;3.37;;;3.07;;
15706;SDS011;7953;54.302;10.128;2023-01-08T06:18:12;4.27;;;3.33;;
15706;SDS011;7953;54.302;10.128;2023-01-08T06:20:39;5.03;;;3.47;;
15706;SDS011;7953;54.302;10.128;2023-01-08T06:23:06;3.60;;;3.30;;
15706;SDS011;7953;54.302;10.128;2023-01-08T06:25:33;4.40;;;3.67;;
15706;SDS011;7953;54.302;10.128;2023-01-08T06:28:00;3.63;;;3.20;;
15706;SDS011;7953;54.302;10.128;2023-01-08T06:30:27;4.40;;;3.37;;
15706;SDS011;7953;54.302;10.128;2023-01-08T06:32:54;4.67;;;3.80;;
15706;SDS011;7953;54.302;10.128;2023-01-08T06:35:23;3.70;;;3.33;;
15706;SDS011;7953;54.302;10.128;2023-01-08T06:37:50;4.07;;;3.57;;
15706;SDS011;7953;54.302;10.128;2023-01-08T06:40:17;4.00;;;3.20;;
15706;SDS011;7953;54.302;10.128;2023-01-08T06:42:44;4.40;;;4.00;;
15706;SDS011;7953;54.302;10.128;2023-01-08T06:45:11;6.57;;;3.50;;
15706;SDS011;7953;54.302;10.128;2023-01-08T06:47:38;4.47;;;3.87;;
15706;SDS011;7953;54.302;10.128;2023-01-08T06:50:05;4.73;;;3.80;;
15706;SDS011;7953;54.302;10.128;2023-01-08T06:52:34;5.07;;;3.40;;
15706;SDS011;7953;54.302;10.128;2023-01-08T06:55:01;7.63;;;4.47;;
15706;SDS011;7953;54.302;10.128;2023-01-08T06:57:28;4.33;;;3.80;;
15706;SDS011;7953;54.302;10.128;2023-01-08T06:59:55;3.70;;;3.30;;
15706;SDS011;7953;54.302;10.128;2023-01-08T07:02:22;3.87;;;3.47;;
15706;SDS011;7953;54.302;10.128;2023-01-08T07:04:49;4.70;;;4.17;;
15706;SDS011;7953;54.302;10.128;2023-01-08T07:07:16;3.83;;;3.43;;
15706;SDS011;7953;54.302;10.128;2023-01-08T07:09:44;3.97;;;3.57;;
15706;SDS011;7953;54.302;10.128;2023-01-08T07:12:11;4.53;;;3.63;;
15706;SDS011;7953;54.302;10.128;2023-01-08T07:14:39;3.97;;;3.40;;
15706;SDS011;7953;54.302;10.128;2023-01-08T07:17:06;5.50;;;4.07;;
15706;SDS011;7953;54.302;10.128;2023-01-08T07:19:33;4.30;;;3.90;;
15706;SDS011;7953;54.302;10.128;2023-01-08T07:22:00;4.27;;;3.67;;
15706;SDS011;7953;54.302;10.128;2023-01-08T07:24:26;4.03;;;3.60;;
15706;SDS011;7953;54.302;10.128;2023-01-08T07:26:55;4.47;;;4.07;;
15706;SDS011;7953;54.302;10.128;2023-01-08T07:29:22;4.00;;;3.60;;
15706;SDS011;7953;54.302;10.128;2023-01-08T07:31:49;5.13;;;3.80;;
15706;SDS011;7953;54.302;10.128;2023-01-08T07:34:16;5.00;;;4.13;;
15706;SDS011;7953;54.302;10.128;2023-01-08T07:36:42;6.60;;;4.23;;
15706;SDS011;7953;54.302;10.128;2023-01-08T07:39:10;7.43;;;4.90;;
15706;SDS011;7953;54.302;10.128;2023-01-08T07:41:37;5.70;;;3.57;;
15706;SDS011;7953;54.302;10.128;2023-01-08T07:44:05;4.70;;;4.20;;
15706;SDS011;7953;54.302;10.128;2023-01-08T07:46:32;4.30;;;4.00;;
15706;SDS011;7953;54.302;10.128;2023-01-08T07:48:59;4.77;;;3.83;;
15706;SDS011;7953;54.302;10.128;2023-01-08T07:51:26;4.37;;;4.03;;
15706;SDS011;7953;54.302;10.128;2023-01-08T07:53:53;4.77;;;4.27;;
15706;SDS011;7953;54.302;10.128;2023-01-08T07:56:21;9.07;;;4.37;;
15706;SDS011;7953;54.302;10.128;2023-01-08T07:58:49;4.70;;;4.20;;
15706;SDS011;7953;54.302;10.128;2023-01-08T08:01:17;3.93;;;3.53;;
15706;SDS011;7953;54.302;10.128;2023-01-08T08:03:44;4.53;;;4.00;;
15706;SDS011;7953;54.302;10.128;2023-01-08T08:06:11;4.43;;;3.40;;
15706;SDS011;7953;54.302;10.128;2023-01-08T08:08:38;4.63;;;4.13;;
15706;SDS011;7953;54.302;10.128;2023-01-08T08:11:05;3.87;;;3.57;;
15706;SDS011;7953;54.302;10.128;2023-01-08T08:13:32;4.23;;;3.83;;
15706;SDS011;7953;54.302;10.128;2023-01-08T08:16:02;4.50;;;3.70;;
15706;SDS011;7953;54.302;10.128;2023-01-08T08:18:31;4.40;;;3.73;;
15706;SDS011;7953;54.302;10.128;2023-01-08T08:20:57;4.83;;;4.27;;
15706;SDS011;7953;54.302;10.128;2023-01-08T08:23:24;4.30;;;3.87;;
15706;SDS011;7953;54.302;10.128;2023-01-08T08:25:51;4.33;;;3.93;;
15706;SDS011;7953;54.302;10.128;2023-01-08T08:28:18;3.97;;;3.50;;
15706;SDS011;7953;54.302;10.128;2023-01-08T08:30:45;5.97;;;4.87;;
15706;SDS011;7953;54.302;10.128;2023-01-08T08:33:12;6.10;;;4.70;;
15706;SDS011;7953;54.302;10.128;2023-01-08T08:35:46;6.87;;;4.63;;
15706;SDS011;7953;54.302;10.128;2023-01-08T08:38:15;8.17;;;6.93;;
15706;SDS011;7953;54.302;10.128;2023-01-08T08:40:41;9.67;;;7.57;;
15706;SDS011;7953;54.302;10.128;2023-01-08T08:43:08;29.93;;;22.57;;
15706;SDS011;7953;54.302;10.128;2023-01-08T08:45:35;13.63;;;10.57;;
15706;SDS011;7953;54.302;10.128;2023-01-08T08:48:04;27.43;;;20.53;;
15706;SDS011;7953;54.302;10.128;2023-01-08T08:50:32;12.17;;;9.17;;
15706;SDS011;7953;54.302;10.128;2023-01-08T08:53:01;24.77;;;16.43;;
15706;SDS011;7953;54.302;10.128;2023-01-08T08:55:29;19.10;;;14.30;;
15706;SDS011;7953;54.302;10.128;2023-01-08T08:58:01;12.13;;;9.07;;
15706;SDS011;7953;54.302;10.128;2023-01-08T09:00:30;9.80;;;8.40;;
15706;SDS011;7953;54.302;10.128;2023-01-08T09:02:57;10.30;;;8.20;;
15706;SDS011;7953;54.302;10.128;2023-01-08T09:05:23;8.93;;;5.90;;
15706;SDS011;7953;54.302;10.128;2023-01-08T09:07:50;6.63;;;5.93;;
15706;SDS011;7953;54.302;10.128;2023-01-08T09:10:19;7.93;;;6.63;;
15706;SDS011;7953;54.302;10.128;2023-01-08T09:12:47;7.10;;;4.23;;
15706;SDS011;7953;54.302;10.128;2023-01-08T09:15:14;4.97;;;4.30;;
15706;SDS011;7953;54.302;10.128;2023-01-08T09:17:41;6.27;;;4.70;;
15706;SDS011;7953;54.302;10.128;2023-01-08T09:20:08;6.67;;;4.50;;
15706;SDS011;7953;54.302;10.128;2023-01-08T09:22:35;7.77;;;5.60;;
15706;SDS011;7953;54.302;10.128;2023-01-08T09:25:02;11.53;;;6.10;;
15706;SDS011;7953;54.302;10.128;2023-01-08T09:27:31;6.87;;;6.17;;
15706;SDS011;7953;54.302;10.128;2023-01-08T09:29:58;5.60;;;4.77;;
15706;SDS011;7953;54.302;10.128;2023-01-08T09:32:25;5.40;;;4.40;;
15706;SDS011;7953;54.302;10.128;2023-01-08T09:34:51;6.40;;;5.20;;
15706;SDS011;7953;54.302;10.128;2023-01-08T09:37:18;7.47;;;5.07;;
15706;SDS011;7953;54.302;10.128;2023-01-08T09:39:47;5.93;;;4.80;;
15706;SDS011;7953;54.302;10.128;2023-01-08T09:42:14;10.17;;;4.93;;
15706;SDS011;7953;54.302;10.128;2023-01-08T09:44:47;5.17;;;4.67;;
15706;SDS011;7953;54.302;10.128;2023-01-08T09:47:20;7.13;;;5.57;;
15706;SDS011;7953;54.302;10.128;2023-01-08T09:49:50;5.77;;;5.13;;
15706;SDS011;7953;54.302;10.128;2023-01-08T09:52:20;7.07;;;5.03;;
15706;SDS011;7953;54.302;10.128;2023-01-08T09:54:47;5.53;;;4.77;;
15706;SDS011;7953;54.302;10.128;2023-01-08T09:57:15;6.13;;;4.60;;
15706;SDS011;7953;54.302;10.128;2023-01-08T09:59:44;5.50;;;4.83;;
15706;SDS011;7953;54.302;10.128;2023-01-08T10:02:14;5.67;;;4.83;;
15706;SDS011;7953;54.302;10.128;2023-01-08T10:04:42;6.10;;;5.00;;
15706;SDS011;7953;54.302;10.128;2023-01-08T10:07:11;6.60;;;5.77;;
15706;SDS011;7953;54.302;10.128;2023-01-08T10:09:45;6.23;;;4.63;;
15706;SDS011;7953;54.302;10.128;2023-01-08T10:12:14;6.93;;;5.10;;
15706;SDS011;7953;54.302;10.128;2023-01-08T10:14:44;6.23;;;5.07;;
15706;SDS011;7953;54.302;10.128;2023-01-08T10:17:19;7.13;;;4.70;;
15706;SDS011;7953;54.302;10.128;2023-01-08T10:19:52;6.53;;;5.27;;
15706;SDS011;7953;54.302;10.128;2023-01-08T10:22:20;6.03;;;4.67;;
15706;SDS011;7953;54.302;10.128;2023-01-08T10:24:49;6.43;;;4.60;;
15706;SDS011;7953;54.302;10.128;2023-01-08T10:27:18;7.20;;;5.03;;
15706;SDS011;7953;54.302;10.128;2023-01-08T10:29:48;4.83;;;4.43;;
15706;SDS011;7953;54.302;10.128;2023-01-08T10:32:17;7.20;;;6.50;;
15706;SDS011;7953;54.302;10.128;2023-01-08T10:34:48;6.77;;;6.07;;
15706;SDS011;7953;54.302;10.128;2023-01-08T10:37:21;7.23;;;4.63;;
15706;SDS011;7953;54.302;10.128;2023-01-08T10:39:51;5.40;;;4.73;;
15706;SDS011;7953;54.302;10.128;2023-01-08T10:42:19;4.30;;;3.77;;
15706;SDS011;7953;54.302;10.128;2023-01-08T10:44:50;7.00;;;4.70;;
15706;SDS011;7953;54.302;10.128;2023-01-08T10:47:26;7.30;;;6.00;;
15706;SDS011;7953;54.302;10.128;2023-01-08T10:49:55;5.40;;;4.90;;
15706;SDS011;7953;54.302;10.128;2023-01-08T10:52:25;5.67;;;4.73;;
15706;SDS011;7953;54.302;10.128;2023-01-08T10:54:53;5.43;;;4.03;;
15706;SDS011;7953;54.302;10.128;2023-01-08T10:57:21;6.67;;;4.73;;
15706;SDS011;7953;54.302;10.128;2023-01-08T10:59:50;6.80;;;4.87;;
15706;SDS011;7953;54.302;10.128;2023-01-08T11:02:20;9.10;;;5.60;;
15706;SDS011;7953;54.302;10.128;2023-01-08T11:04:52;5.57;;;4.70;;
15706;SDS011;7953;54.302;10.128;2023-01-08T11:07:19;8.43;;;4.63;;
15706;SDS011;7953;54.302;10.128;2023-01-08T11:09:48;6.53;;;5.07;;
15706;SDS011;7953;54.302;10.128;2023-01-08T11:12:25;6.07;;;5.30;;
15706;SDS011;7953;54.302;10.128;2023-01-08T11:14:57;6.30;;;4.93;;
15706;SDS011;7953;54.302;10.128;2023-01-08T11:17:25;9.20;;;6.27;;
15706;SDS011;7953;54.302;10.128;2023-01-08T11:19:54;6.77;;;5.93;;
15706;SDS011;7953;54.302;10.128;2023-01-08T11:22:32;5.93;;;5.20;;
15706;SDS011;7953;54.302;10.128;2023-01-08T11:24:59;4.40;;;4.00;;
15706;SDS011;7953;54.302;10.128;2023-01-08T11:27:27;4.67;;;4.23;;
15706;SDS011;7953;54.302;10.128;2023-01-08T11:29:58;4.93;;;4.43;;
15706;SDS011;7953;54.302;10.128;2023-01-08T11:32:36;5.13;;;3.93;;
15706;SDS011;7953;54.302;10.128;2023-01-08T11:35:12;6.53;;;5.20;;
15706;SDS011;7953;54.302;10.128;2023-01-08T11:37:45;7.47;;;4.37;;
15706;SDS011;7953;54.302;10.128;2023-01-08T11:40:17;6.97;;;4.10;;
15706;SDS011;7953;54.302;10.128;2023-01-08T11:45:47;5.37;;;4.03;;
15706;SDS011;7953;54.302;10.128;2023-01-08T11:48:49;5.37;;;4.33;;
15706;SDS011;7953;54.302;10.128;2023-01-08T11:54:14;5.83;;;4.50;;
15706;SDS011;7953;54.302;10.128;2023-01-08T11:56:54;5.90;;;4.90;;
15706;SDS011;7953;54.302;10.128;2023-01-08T11:59:32;5.17;;;4.67;;
15706;SDS011;7953;54.302;10.128;2023-01-08T12:02:12;5.47;;;4.50;;
15706;SDS011;7953;54.302;10.128;2023-01-08T12:07:54;6.60;;;5.03;;
15706;SDS011;7953;54.302;10.128;2023-01-08T12:10:29;6.67;;;4.30;;
15706;SDS011;7953;54.302;10.128;2023-01-08T12:13:10;4.83;;;4.23;;
15706;SDS011;7953;54.302;10.128;2023-01-08T12:15:49;4.17;;;3.77;;
15706;SDS011;7953;54.302;10.128;2023-01-08T12:18:35;7.27;;;4.80;;
15706;SDS011;7953;54.302;10.128;2023-01-08T12:21:21;5.77;;;4.03;;
15706;SDS011;7953;54.302;10.128;2023-01-08T12:24:05;3.97;;;3.50;;
15706;SDS011;7953;54.302;10.128;2023-01-08T12:26:48;3.53;;;3.23;;
15706;SDS011;7953;54.302;10.128;2023-01-08T12:29:32;7.03;;;4.37;;
15706;SDS011;7953;54.302;10.128;2023-01-08T12:32:23;8.63;;;5.47;;
15706;SDS011;7953;54.302;10.128;2023-01-08T12:34:57;6.60;;;4.20;;
15706;SDS011;7953;54.302;10.128;2023-01-08T12:37:30;7.87;;;5.70;;
15706;SDS011;7953;54.302;10.128;2023-01-08T12:40:14;6.37;;;5.37;;
15706;SDS011;7953;54.302;10.128;2023-01-08T12:42:44;4.80;;;4.07;;
15706;SDS011;7953;54.302;10.128;2023-01-08T12:45:13;12.93;;;8.60;;
15706;SDS011;7953;54.302;10.128;2023-01-08T12:47:43;4.60;;;4.20;;
15706;SDS011;7953;54.302;10.128;2023-01-08T12:53:06;7.27;;;5.07;;
15706;SDS011;7953;54.302;10.128;2023-01-08T12:55:42;6.53;;;5.03;;
15706;SDS011;7953;54.302;10.128;2023-01-08T12:58:18;5.97;;;4.20;;
15706;SDS011;7953;54.302;10.128;2023-01-08T13:00:53;4.90;;;2.60;;
15706;SDS011;7953;54.302;10.128;2023-01-08T13:03:26;5.93;;;4.00;;
15706;SDS011;7953;54.302;10.128;2023-01-08T13:06:03;4.20;;;3.27;;
15706;SDS011;7953;54.302;10.128;2023-01-08T13:08:33;4.43;;;3.07;;
15706;SDS011;7953;54.302;10.128;2023-01-08T13:11:03;4.43;;;3.53;;
15706;SDS011;7953;54.302;10.128;2023-01-08T13:13:32;4.23;;;3.10;;
15706;SDS011;7953;54.302;10.128;2023-01-08T13:16:07;5.57;;;3.40;;
15706;SDS011;7953;54.302;10.128;2023-01-08T13:18:49;12.00;;;9.07;;
15706;SDS011;7953;54.302;10.128;2023-01-08T13:21:17;9.03;;;6.73;;
15706;SDS011;7953;54.302;10.128;2023-01-08T13:23:58;6.47;;;3.93;;
15706;SDS011;7953;54.302;10.128;2023-01-08T13:26:28;5.03;;;2.57;;
15706;SDS011;7953;54.302;10.128;2023-01-08T13:29:05;4.53;;;2.97;;
15706;SDS011;7953;54.302;10.128;2023-01-08T13:31:37;3.13;;;2.70;;
15706;SDS011;7953;54.302;10.128;2023-01-08T13:34:17;3.30;;;2.50;;
15706;SDS011;7953;54.302;10.128;2023-01-08T13:36:54;2.90;;;2.30;;
15706;SDS011;7953;54.302;10.128;2023-01-08T13:39:21;3.57;;;2.93;;
15706;SDS011;7953;54.302;10.128;2023-01-08T13:41:58;4.30;;;3.10;;
15706;SDS011;7953;54.302;10.128;2023-01-08T13:44:28;3.57;;;2.57;;
15706;SDS011;7953;54.302;10.128;2023-01-08T13:46:59;4.33;;;2.70;;
15706;SDS011;7953;54.302;10.128;2023-01-08T13:49:31;3.63;;;2.90;;
15706;SDS011;7953;54.302;10.128;2023-01-08T13:52:00;3.63;;;3.10;;
15706;SDS011;7953;54.302;10.128;2023-01-08T13:54:31;4.43;;;2.93;;
15706;SDS011;7953;54.302;10.128;2023-01-08T13:57:03;2.80;;;2.30;;
15706;SDS011;7953;54.302;10.128;2023-01-08T13:59:35;4.03;;;2.40;;
15706;SDS011;7953;54.302;10.128;2023-01-08T14:02:18;3.63;;;2.30;;
15706;SDS011;7953;54.302;10.128;2023-01-08T14:04:49;4.70;;;2.33;;
15706;SDS011;7953;54.302;10.128;2023-01-08T14:07:16;3.80;;;2.33;;
15706;SDS011;7953;54.302;10.128;2023-01-08T14:09:43;4.93;;;2.77;;
15706;SDS011;7953;54.302;10.128;2023-01-08T14:12:12;6.23;;;3.50;;
15706;SDS011;7953;54.302;10.128;2023-01-08T14:14:45;3.93;;;2.87;;
15706;SDS011;7953;54.302;10.128;2023-01-08T14:17:14;6.47;;;3.00;;
15706;SDS011;7953;54.302;10.128;2023-01-08T14:19:42;4.40;;;2.93;;
15706;SDS011;7953;54.302;10.128;2023-01-08T14:22:12;10.50;;;4.77;;
15706;SDS011;7953;54.302;10.128;2023-01-08T14:24:43;4.50;;;2.53;;
15706;SDS011;7953;54.302;10.128;2023-01-08T14:27:20;4.00;;;2.67;;
15706;SDS011;7953;54.302;10.128;2023-01-08T14:29:49;3.77;;;2.53;;
15706;SDS011;7953;54.302;10.128;2023-01-08T14:32:16;3.93;;;3.23;;
15706;SDS011;7953;54.302;10.128;2023-01-08T14:34:46;6.27;;;5.67;;
15706;SDS011;7953;54.302;10.128;2023-01-08T14:37:14;5.63;;;3.97;;
15706;SDS011;7953;54.302;10.128;2023-01-08T14:39:42;3.20;;;2.90;;
15706;SDS011;7953;54.302;10.128;2023-01-08T14:42:12;3.50;;;2.90;;
15706;SDS011;7953;54.302;10.128;2023-01-08T14:45:02;4.27;;;2.97;;
15706;SDS011;7953;54.302;10.128;2023-01-08T14:47:33;3.03;;;2.33;;
15706;SDS011;7953;54.302;10.128;2023-01-08T14:50:02;4.40;;;3.20;;
15706;SDS011;7953;54.302;10.128;2023-01-08T14:52:30;5.80;;;2.20;;
15706;SDS011;7953;54.302;10.128;2023-01-08T14:54:58;4.10;;;2.80;;
15706;SDS011;7953;54.302;10.128;2023-01-08T14:57:27;4.33;;;2.50;;
15706;SDS011;7953;54.302;10.128;2023-01-08T14:59:55;4.47;;;2.30;;
15706;SDS011;7953;54.302;10.128;2023-01-08T15:02:26;4.00;;;2.70;;
15706;SDS011;7953;54.302;10.128;2023-01-08T15:04:59;4.57;;;2.30;;
15706;SDS011;7953;54.302;10.128;2023-01-08T15:07:27;4.47;;;2.53;;
15706;SDS011;7953;54.302;10.128;2023-01-08T15:09:54;4.70;;;2.47;;
15706;SDS011;7953;54.302;10.128;2023-01-08T15:12:22;7.30;;;2.53;;
15706;SDS011;7953;54.302;10.128;2023-01-08T15:14:50;3.00;;;1.77;;
15706;SDS011;7953;54.302;10.128;2023-01-08T15:17:19;8.47;;;2.90;;